This is the latest recevied weather packets stored in our database for station/object W4VCO. If no packets are shown the sender has not sent any weather packets the latest 10 day(s).
| Time | Temp. | Humidity | Pressure | Rain* | Wind** | Luminosity | Snow |
|---|---|---|---|---|---|---|---|
| 1777294844 | 21.11° C | 91% | 1013.8 hPa | 0 mm | - | - | - |
| 1777294544 | 21.11° C | 92% | 1013.9 hPa | 0 mm | - | - | - |
| 1777293647 | 20.56° C | 95% | 1013.9 hPa | 0 mm | - | - | - |
| 1777293043 | 20° C | 95% | 1013.8 hPa | 0 mm | - | - | - |
| 1777290942 | 19.44° C | 95% | 1013.4 hPa | 0 mm | - | - | - |
| 1777280143 | 18.33° C | 92% | 1011.4 hPa | 0 mm | - | - | - |
| 1777278342 | 18.33° C | 91% | 1011.2 hPa | 0 mm | - | - | - |
| 1777274743 | 18.89° C | 90% | 1011 hPa | 0 mm | - | - | - |
| 1777274148 | 18.89° C | 89% | 1010.7 hPa | 0 mm | - | - | - |
| 1777273846 | 18.89° C | 89% | 1010.7 hPa | 0 mm | - | - | - |
| 1777273245 | 18.89° C | 89% | 1010.7 hPa | 0 mm | - | - | - |
| 1777272046 | 18.89° C | 89% | 1010.7 hPa | 0 mm | - | - | - |
| 1777271748 | 18.89° C | 89% | 1010.7 hPa | 0 mm | - | - | - |
| 1777265441 | 20° C | 84% | 1011.7 hPa | 0 mm | - | - | - |
| 1777263334 | 20.56° C | 81% | 1012 hPa | 0 mm | - | - | - |
| 1777256442 | 22.22° C | 72% | 1011 hPa | 0 mm | - | - | - |
| 1777255842 | 22.22° C | 70% | 1011.1 hPa | 0 mm | - | - | - |
| 1777254046 | 23.33° C | 69% | 1010.9 hPa | 0 mm | - | - | - |
| 1777253747 | 23.33° C | 68% | 1010.9 hPa | 0 mm | - | - | - |
| 1777248944 | 25° C | 59% | 1009.9 hPa | 0 mm | - | - | - |
| 1777248345 | 25.56° C | 58% | 1010 hPa | 0 mm | - | - | - |
| 1777242349 | 28.89° C | 47% | 1009.1 hPa | 0 mm | - | - | - |
| 1777237847 | 29.44° C | 40% | 1008.9 hPa | 0 mm | - | - | - |
| 1777233953 | 30° C | 43% | 1008.9 hPa | 0 mm | - | - | - |
| 1777232447 | 29.44° C | 47% | 1009 hPa | 0 mm | - | - | - |
* Rain latest hour (hover to see other rain measurements)
** Current wind speed in m/s (hover to see current wind gust speed)